sensor_id;sensor_type;location;lat;lon;timestamp;pressure;altitude;pressure_sealevel;temperature;humidity
27712;BME280;2377;51.734;8.950;2023-01-24T00:00:22;99835.66;;;2.13;91.48
27712;BME280;2377;51.734;8.950;2023-01-24T00:02:49;99831.31;;;2.15;92.04
27712;BME280;2377;51.734;8.950;2023-01-24T00:05:16;99836.38;;;2.15;91.80
27712;BME280;2377;51.734;8.950;2023-01-24T00:07:43;99829.03;;;2.12;91.10
27712;BME280;2377;51.734;8.950;2023-01-24T00:10:12;99830.13;;;2.08;91.32
27712;BME280;2377;51.734;8.950;2023-01-24T00:12:39;99831.03;;;2.07;91.13
27712;BME280;2377;51.734;8.950;2023-01-24T00:15:08;99825.78;;;2.10;91.73
27712;BME280;2377;51.734;8.950;2023-01-24T00:17:35;99832.66;;;2.08;91.96
27712;BME280;2377;51.734;8.950;2023-01-24T00:20:03;99833.16;;;2.13;91.52
27712;BME280;2377;51.734;8.950;2023-01-24T00:22:31;99834.97;;;2.11;91.58
27712;BME280;2377;51.734;8.950;2023-01-24T00:24:58;99833.38;;;2.10;92.04
27712;BME280;2377;51.734;8.950;2023-01-24T00:27:26;99826.50;;;2.12;91.66
27712;BME280;2377;51.734;8.950;2023-01-24T00:29:57;99828.09;;;2.13;92.11
27712;BME280;2377;51.734;8.950;2023-01-24T00:32:24;99823.06;;;2.13;91.50
27712;BME280;2377;51.734;8.950;2023-01-24T00:34:51;99821.47;;;2.12;91.94
27712;BME280;2377;51.734;8.950;2023-01-24T00:37:18;99818.94;;;2.12;91.88
27712;BME280;2377;51.734;8.950;2023-01-24T00:39:45;99818.81;;;2.14;91.26
27712;BME280;2377;51.734;8.950;2023-01-24T00:42:12;99821.47;;;2.12;90.93
27712;BME280;2377;51.734;8.950;2023-01-24T00:44:40;99820.63;;;2.11;90.94
27712;BME280;2377;51.734;8.950;2023-01-24T00:47:07;99818.00;;;2.13;91.71
27712;BME280;2377;51.734;8.950;2023-01-24T00:49:34;99812.88;;;2.15;91.72
27712;BME280;2377;51.734;8.950;2023-01-24T00:52:01;99807.03;;;2.14;91.24
27712;BME280;2377;51.734;8.950;2023-01-24T00:54:28;99807.81;;;2.15;90.45
27712;BME280;2377;51.734;8.950;2023-01-24T00:56:56;99806.09;;;2.15;91.81
27712;BME280;2377;51.734;8.950;2023-01-24T00:59:23;99808.63;;;2.15;90.79
27712;BME280;2377;51.734;8.950;2023-01-24T01:01:51;99803.34;;;2.18;91.14
27712;BME280;2377;51.734;8.950;2023-01-24T01:04:18;99810.13;;;2.18;91.32
27712;BME280;2377;51.734;8.950;2023-01-24T01:06:45;99802.66;;;2.16;90.93
27712;BME280;2377;51.734;8.950;2023-01-24T01:09:12;99802.66;;;2.16;91.17
27712;BME280;2377;51.734;8.950;2023-01-24T01:11:39;99807.69;;;2.16;90.85
27712;BME280;2377;51.734;8.950;2023-01-24T01:14:08;99815.16;;;2.18;90.70
27712;BME280;2377;51.734;8.950;2023-01-24T01:16:35;99815.97;;;2.18;90.72
27712;BME280;2377;51.734;8.950;2023-01-24T01:19:05;99815.16;;;2.18;90.71
27712;BME280;2377;51.734;8.950;2023-01-24T01:21:32;99828.56;;;2.18;90.35
27712;BME280;2377;51.734;8.950;2023-01-24T01:24:00;99828.91;;;2.14;89.71
27712;BME280;2377;51.734;8.950;2023-01-24T01:26:27;99823.66;;;2.17;90.21
27712;BME280;2377;51.734;8.950;2023-01-24T01:28:54;99828.09;;;2.13;90.25
27712;BME280;2377;51.734;8.950;2023-01-24T01:31:21;99829.72;;;2.14;90.13
27712;BME280;2377;51.734;8.950;2023-01-24T01:33:48;99833.16;;;2.13;90.36
27712;BME280;2377;51.734;8.950;2023-01-24T01:36:17;99834.06;;;2.12;90.27
27712;BME280;2377;51.734;8.950;2023-01-24T01:38:44;99830.63;;;2.13;89.98
27712;BME280;2377;51.734;8.950;2023-01-24T01:41:12;99839.81;;;2.14;89.85
27712;BME280;2377;51.734;8.950;2023-01-24T01:43:40;99835.56;;;2.15;89.41
27712;BME280;2377;51.734;8.950;2023-01-24T01:46:30;99838.97;;;2.14;89.95
27712;BME280;2377;51.734;8.950;2023-01-24T01:49:05;99836.47;;;2.14;89.59
27712;BME280;2377;51.734;8.950;2023-01-24T01:51:43;99838.19;;;2.13;89.42
27712;BME280;2377;51.734;8.950;2023-01-24T01:54:16;99827.41;;;2.11;89.79
27712;BME280;2377;51.734;8.950;2023-01-24T01:56:48;99833.84;;;2.15;90.10
27712;BME280;2377;51.734;8.950;2023-01-24T01:59:28;99829.72;;;2.14;89.28
27712;BME280;2377;51.734;8.950;2023-01-24T02:01:58;99829.81;;;2.13;89.21
27712;BME280;2377;51.734;8.950;2023-01-24T02:04:33;99830.63;;;2.13;89.59
27712;BME280;2377;51.734;8.950;2023-01-24T02:07:07;99826.50;;;2.12;89.44
27712;BME280;2377;51.734;8.950;2023-01-24T02:09:40;99834.97;;;2.11;89.25
27712;BME280;2377;51.734;8.950;2023-01-24T02:12:12;99835.09;;;2.09;88.69
27712;BME280;2377;51.734;8.950;2023-01-24T02:14:42;99831.75;;;2.09;88.79
27712;BME280;2377;51.734;8.950;2023-01-24T02:17:31;99833.47;;;2.08;88.81
27712;BME280;2377;51.734;8.950;2023-01-24T02:20:14;99831.88;;;2.07;88.36
27712;BME280;2377;51.734;8.950;2023-01-24T02:22:55;99842.06;;;2.06;88.96
27712;BME280;2377;51.734;8.950;2023-01-24T02:25:36;99838.72;;;2.05;88.93
27712;BME280;2377;51.734;8.950;2023-01-24T02:28:07;99833.69;;;2.05;88.53
27712;BME280;2377;51.734;8.950;2023-01-24T02:30:38;99835.19;;;2.08;89.72
27712;BME280;2377;51.734;8.950;2023-01-24T02:33:16;99830.03;;;2.09;88.78
27712;BME280;2377;51.734;8.950;2023-01-24T02:35:44;99833.56;;;2.07;88.93
27712;BME280;2377;51.734;8.950;2023-01-24T02:38:18;99829.44;;;2.06;89.37
27712;BME280;2377;51.734;8.950;2023-01-24T02:40:49;99821.16;;;2.04;89.10
27712;BME280;2377;51.734;8.950;2023-01-24T02:43:22;99820.28;;;2.05;89.33
27712;BME280;2377;51.734;8.950;2023-01-24T02:45:52;99827.13;;;2.03;88.69
27712;BME280;2377;51.734;8.950;2023-01-24T02:48:19;99820.47;;;2.02;89.05
27712;BME280;2377;51.734;8.950;2023-01-24T02:50:46;99825.50;;;2.02;88.40
27712;BME280;2377;51.734;8.950;2023-01-24T02:53:30;99821.41;;;2.01;88.32
27712;BME280;2377;51.734;8.950;2023-01-24T02:55:59;99823.13;;;2.00;88.41
27712;BME280;2377;51.734;8.950;2023-01-24T02:58:45;99821.41;;;2.01;88.14
27712;BME280;2377;51.734;8.950;2023-01-24T03:01:13;99822.09;;;2.03;88.58
27712;BME280;2377;51.734;8.950;2023-01-24T03:03:41;99814.41;;;2.04;88.85
27712;BME280;2377;51.734;8.950;2023-01-24T03:06:09;99827.13;;;2.03;88.91
27712;BME280;2377;51.734;8.950;2023-01-24T03:08:37;99819.44;;;2.04;88.52
27712;BME280;2377;51.734;8.950;2023-01-24T03:11:06;99815.22;;;2.05;88.40
27712;BME280;2377;51.734;8.950;2023-01-24T03:13:34;99817.75;;;2.05;87.85
27712;BME280;2377;51.734;8.950;2023-01-24T03:16:22;99819.56;;;2.03;87.92
27712;BME280;2377;51.734;8.950;2023-01-24T03:19:07;99811.31;;;2.01;88.21
27712;BME280;2377;51.734;8.950;2023-01-24T03:21:52;99810.38;;;2.02;88.00
27712;BME280;2377;51.734;8.950;2023-01-24T03:24:36;99806.50;;;1.98;87.99
27712;BME280;2377;51.734;8.950;2023-01-24T03:27:21;99808.00;;;2.00;87.98
27712;BME280;2377;51.734;8.950;2023-01-24T03:30:08;99804.16;;;1.95;88.14
27712;BME280;2377;51.734;8.950;2023-01-24T03:33:00;99799.13;;;1.95;87.60
27712;BME280;2377;51.734;8.950;2023-01-24T03:35:48;99805.09;;;1.94;88.44
27712;BME280;2377;51.734;8.950;2023-01-24T03:38:20;99793.38;;;1.93;88.30
27712;BME280;2377;51.734;8.950;2023-01-24T03:41:05;99801.16;;;1.89;88.17
27712;BME280;2377;51.734;8.950;2023-01-24T03:43:32;99793.28;;;1.94;88.56
27712;BME280;2377;51.734;8.950;2023-01-24T03:45:59;99792.94;;;1.99;88.36
27712;BME280;2377;51.734;8.950;2023-01-24T03:48:28;99790.06;;;1.92;87.12
27712;BME280;2377;51.734;8.950;2023-01-24T03:51:00;99790.28;;;1.89;88.06
27712;BME280;2377;51.734;8.950;2023-01-24T03:53:44;99788.47;;;1.91;87.20
27712;BME280;2377;51.734;8.950;2023-01-24T03:56:11;99785.22;;;1.89;87.39
27712;BME280;2377;51.734;8.950;2023-01-24T03:58:39;99781.91;;;1.88;87.48
27712;BME280;2377;51.734;8.950;2023-01-24T04:01:06;99781.00;;;1.89;88.24
27712;BME280;2377;51.734;8.950;2023-01-24T04:03:35;99781.00;;;1.89;88.44
27712;BME280;2377;51.734;8.950;2023-01-24T04:06:02;99784.44;;;1.88;88.01
27712;BME280;2377;51.734;8.950;2023-01-24T04:08:29;99781.78;;;1.90;87.91
27712;BME280;2377;51.734;8.950;2023-01-24T04:10:56;99789.66;;;1.85;87.81
27712;BME280;2377;51.734;8.950;2023-01-24T04:13:24;99792.09;;;1.87;87.32
27712;BME280;2377;51.734;8.950;2023-01-24T04:15:51;99784.53;;;1.87;88.10
27712;BME280;2377;51.734;8.950;2023-01-24T04:18:18;99789.47;;;1.88;88.07
27712;BME280;2377;51.734;8.950;2023-01-24T04:20:47;99790.28;;;1.89;87.32
27712;BME280;2377;51.734;8.950;2023-01-24T04:23:14;99788.47;;;1.91;87.64
27712;BME280;2377;51.734;8.950;2023-01-24T04:25:41;99794.88;;;1.95;87.48
27712;BME280;2377;51.734;8.950;2023-01-24T04:28:08;99790.84;;;1.93;87.82
27712;BME280;2377;51.734;8.950;2023-01-24T04:30:35;99789.25;;;1.92;87.56
27712;BME280;2377;51.734;8.950;2023-01-24T04:33:02;99789.47;;;1.88;87.62
27712;BME280;2377;51.734;8.950;2023-01-24T04:35:29;99789.34;;;1.90;87.86
27712;BME280;2377;51.734;8.950;2023-01-24T04:38:03;99785.13;;;1.90;87.92
27712;BME280;2377;51.734;8.950;2023-01-24T04:40:30;99777.19;;;1.84;87.28
27712;BME280;2377;51.734;8.950;2023-01-24T04:42:57;99781.41;;;1.83;87.34
27712;BME280;2377;51.734;8.950;2023-01-24T04:45:25;99780.03;;;1.79;87.38
27712;BME280;2377;51.734;8.950;2023-01-24T04:47:53;99789.09;;;1.82;87.93
27712;BME280;2377;51.734;8.950;2023-01-24T04:50:21;99775.00;;;1.79;87.59
27712;BME280;2377;51.734;8.950;2023-01-24T04:52:48;99789.31;;;1.79;87.74
27712;BME280;2377;51.734;8.950;2023-01-24T04:55:17;99788.50;;;1.78;88.19
27712;BME280;2377;51.734;8.950;2023-01-24T04:57:44;99786.56;;;1.82;88.17
27712;BME280;2377;51.734;8.950;2023-01-24T05:00:11;99782.25;;;1.71;87.49
27712;BME280;2377;51.734;8.950;2023-01-24T05:02:38;99791.31;;;1.74;87.45
27712;BME280;2377;51.734;8.950;2023-01-24T05:05:07;99792.03;;;1.76;88.52
27712;BME280;2377;51.734;8.950;2023-01-24T05:07:34;99790.00;;;1.81;87.85
27712;BME280;2377;51.734;8.950;2023-01-24T05:10:01;99802.59;;;1.81;88.05
27712;BME280;2377;51.734;8.950;2023-01-24T05:12:30;99800.69;;;1.84;88.64
27712;BME280;2377;51.734;8.950;2023-01-24T05:14:57;99798.97;;;1.85;87.84
27712;BME280;2377;51.734;8.950;2023-01-24T05:17:24;99791.50;;;1.83;87.52
27712;BME280;2377;51.734;8.950;2023-01-24T05:19:51;99792.41;;;1.82;87.70
27712;BME280;2377;51.734;8.950;2023-01-24T05:22:18;99795.94;;;1.80;87.78
27712;BME280;2377;51.734;8.950;2023-01-24T05:24:45;99793.53;;;1.78;87.55
27712;BME280;2377;51.734;8.950;2023-01-24T05:27:12;99791.94;;;1.77;88.07
27712;BME280;2377;51.734;8.950;2023-01-24T05:29:41;99796.97;;;1.77;87.95
27712;BME280;2377;51.734;8.950;2023-01-24T05:32:08;99801.09;;;1.78;88.38
27712;BME280;2377;51.734;8.950;2023-01-24T05:34:35;99802.00;;;1.77;88.71
27712;BME280;2377;51.734;8.950;2023-01-24T05:37:02;99807.06;;;1.77;88.26
27712;BME280;2377;51.734;8.950;2023-01-24T05:39:29;99807.06;;;1.77;88.66
27712;BME280;2377;51.734;8.950;2023-01-24T05:41:56;99807.84;;;1.78;88.80
27712;BME280;2377;51.734;8.950;2023-01-24T05:44:23;99806.84;;;1.80;88.79
27712;BME280;2377;51.734;8.950;2023-01-24T05:46:54;99815.81;;;1.84;88.13
27712;BME280;2377;51.734;8.950;2023-01-24T05:49:22;99816.03;;;1.81;87.65
27712;BME280;2377;51.734;8.950;2023-01-24T05:51:49;99820.38;;;1.79;88.05
27712;BME280;2377;51.734;8.950;2023-01-24T05:54:16;99819.44;;;1.80;87.94
27712;BME280;2377;51.734;8.950;2023-01-24T05:56:43;99821.06;;;1.81;88.23
27712;BME280;2377;51.734;8.950;2023-01-24T05:59:10;99824.47;;;1.80;88.62
27712;BME280;2377;51.734;8.950;2023-01-24T06:01:39;99813.50;;;1.81;88.35
27712;BME280;2377;51.734;8.950;2023-01-24T06:04:07;99818.75;;;1.78;87.47
27712;BME280;2377;51.734;8.950;2023-01-24T06:06:35;99829.53;;;1.80;88.34
27712;BME280;2377;51.734;8.950;2023-01-24T06:09:02;99824.47;;;1.80;88.42
27712;BME280;2377;51.734;8.950;2023-01-24T06:11:29;99827.13;;;1.79;87.72
27712;BME280;2377;51.734;8.950;2023-01-24T06:13:58;99828.94;;;1.77;86.93
27712;BME280;2377;51.734;8.950;2023-01-24T06:16:26;99826.44;;;1.77;86.99
27712;BME280;2377;51.734;8.950;2023-01-24T06:18:55;99829.25;;;1.72;87.53
27712;BME280;2377;51.734;8.950;2023-01-24T06:21:41;99837.72;;;1.71;87.12
27712;BME280;2377;51.734;8.950;2023-01-24T06:24:17;99837.72;;;1.71;86.90
27712;BME280;2377;51.734;8.950;2023-01-24T06:26:45;99847.72;;;1.73;87.66
27712;BME280;2377;51.734;8.950;2023-01-24T06:29:14;99846.78;;;1.74;87.53
27712;BME280;2377;51.734;8.950;2023-01-24T06:31:54;99852.84;;;1.71;86.63
27712;BME280;2377;51.734;8.950;2023-01-24T06:34:47;99852.44;;;1.64;87.11
27712;BME280;2377;51.734;8.950;2023-01-24T06:37:32;99856.47;;;1.67;87.12
27712;BME280;2377;51.734;8.950;2023-01-24T06:40:10;99861.50;;;1.67;87.49
27712;BME280;2377;51.734;8.950;2023-01-24T06:42:38;99854.66;;;1.69;87.57
27712;BME280;2377;51.734;8.950;2023-01-24T06:45:07;99857.88;;;1.71;87.56
27712;BME280;2377;51.734;8.950;2023-01-24T06:47:35;99866.25;;;1.72;87.92
27712;BME280;2377;51.734;8.950;2023-01-24T06:50:04;99861.09;;;1.73;87.23
27712;BME280;2377;51.734;8.950;2023-01-24T06:52:33;99876.22;;;1.73;87.42
27712;BME280;2377;51.734;8.950;2023-01-24T06:55:00;99860.53;;;1.69;87.33
27712;BME280;2377;51.734;8.950;2023-01-24T06:57:27;99872.91;;;1.73;87.16
27712;BME280;2377;51.734;8.950;2023-01-24T06:59:55;99869.59;;;1.72;87.97
27712;BME280;2377;51.734;8.950;2023-01-24T07:02:22;99875.34;;;1.74;87.14
27712;BME280;2377;51.734;8.950;2023-01-24T07:04:49;99872.00;;;1.74;87.62
27712;BME280;2377;51.734;8.950;2023-01-24T07:07:16;99882.19;;;1.72;87.38
27712;BME280;2377;51.734;8.950;2023-01-24T07:09:44;99884.91;;;1.69;86.38
27712;BME280;2377;51.734;8.950;2023-01-24T07:12:11;99882.69;;;1.64;86.53
27712;BME280;2377;51.734;8.950;2023-01-24T07:14:38;99885.22;;;1.64;87.05
27712;BME280;2377;51.734;8.950;2023-01-24T07:17:06;99886.94;;;1.64;87.10
27712;BME280;2377;51.734;8.950;2023-01-24T07:19:34;99885.81;;;1.68;87.74
27712;BME280;2377;51.734;8.950;2023-01-24T07:22:02;99887.53;;;1.67;87.09
27712;BME280;2377;51.734;8.950;2023-01-24T07:24:30;99883.31;;;1.68;87.12
27712;BME280;2377;51.734;8.950;2023-01-24T07:26:59;99885.91;;;1.66;86.81
27712;BME280;2377;51.734;8.950;2023-01-24T07:29:26;99883.69;;;1.62;86.30
27712;BME280;2377;51.734;8.950;2023-01-24T07:31:53;99885.34;;;1.63;86.51
27712;BME280;2377;51.734;8.950;2023-01-24T07:34:21;99893.59;;;1.65;86.98
27712;BME280;2377;51.734;8.950;2023-01-24T07:36:48;99886.03;;;1.65;86.84
27712;BME280;2377;51.734;8.950;2023-01-24T07:39:15;99891.97;;;1.64;87.01
27712;BME280;2377;51.734;8.950;2023-01-24T07:41:43;99891.06;;;1.65;86.63
27712;BME280;2377;51.734;8.950;2023-01-24T07:44:13;99899.84;;;1.59;86.30
27712;BME280;2377;51.734;8.950;2023-01-24T07:46:40;99888.75;;;1.62;86.24
27712;BME280;2377;51.734;8.950;2023-01-24T07:49:07;99898.72;;;1.63;86.33
27712;BME280;2377;51.734;8.950;2023-01-24T07:51:34;99887.94;;;1.61;86.50
27712;BME280;2377;51.734;8.950;2023-01-24T07:54:01;99897.94;;;1.63;87.13
27712;BME280;2377;51.734;8.950;2023-01-24T07:56:28;99892.28;;;1.59;86.67
27712;BME280;2377;51.734;8.950;2023-01-24T07:58:57;99893.59;;;1.65;86.67
27712;BME280;2377;51.734;8.950;2023-01-24T08:01:26;99898.94;;;1.60;86.90
27712;BME280;2377;51.734;8.950;2023-01-24T08:03:55;99894.63;;;1.62;87.10
27712;BME280;2377;51.734;8.950;2023-01-24T08:06:22;99902.84;;;1.64;87.58
27712;BME280;2377;51.734;8.950;2023-01-24T08:08:49;99904.25;;;1.68;87.04
27712;BME280;2377;51.734;8.950;2023-01-24T08:11:16;99906.19;;;1.65;87.13
27712;BME280;2377;51.734;8.950;2023-01-24T08:13:44;99904.66;;;1.75;86.95
27712;BME280;2377;51.734;8.950;2023-01-24T08:16:11;99901.22;;;1.76;86.79
27712;BME280;2377;51.734;8.950;2023-01-24T08:18:40;99912.13;;;1.77;87.23
27712;BME280;2377;51.734;8.950;2023-01-24T08:21:07;99907.81;;;1.79;86.90
27712;BME280;2377;51.734;8.950;2023-01-24T08:23:35;99921.78;;;1.83;87.42
27712;BME280;2377;51.734;8.950;2023-01-24T08:26:03;99920.78;;;1.85;87.15
27712;BME280;2377;51.734;8.950;2023-01-24T08:28:32;99907.47;;;1.83;86.16
27712;BME280;2377;51.734;8.950;2023-01-24T08:30:59;99915.94;;;1.82;86.59
27712;BME280;2377;51.734;8.950;2023-01-24T08:33:26;99919.19;;;1.84;86.23
27712;BME280;2377;51.734;8.950;2023-01-24T08:35:55;99917.53;;;1.83;86.63
27712;BME280;2377;51.734;8.950;2023-01-24T08:38:22;99921.78;;;1.83;85.88
27712;BME280;2377;51.734;8.950;2023-01-24T08:40:50;99925.81;;;1.85;86.34
27712;BME280;2377;51.734;8.950;2023-01-24T08:43:18;99925.50;;;1.90;87.00
27712;BME280;2377;51.734;8.950;2023-01-24T08:45:45;99930.38;;;1.93;87.06
27712;BME280;2377;51.734;8.950;2023-01-24T08:48:12;99929.44;;;1.94;86.20
27712;BME280;2377;51.734;8.950;2023-01-24T08:50:39;99936.09;;;1.95;86.09
27712;BME280;2377;51.734;8.950;2023-01-24T08:53:08;99936.91;;;1.96;86.32
27712;BME280;2377;51.734;8.950;2023-01-24T08:55:35;99945.97;;;1.98;85.71
27712;BME280;2377;51.734;8.950;2023-01-24T08:58:04;99933.69;;;1.94;85.37
27712;BME280;2377;51.734;8.950;2023-01-24T09:00:32;99939.75;;;1.91;85.39
27712;BME280;2377;51.734;8.950;2023-01-24T09:02:59;99939.13;;;1.87;85.33
27712;BME280;2377;51.734;8.950;2023-01-24T09:05:26;99940.94;;;1.85;85.91
27712;BME280;2377;51.734;8.950;2023-01-24T09:07:53;99948.41;;;1.87;86.17
27712;BME280;2377;51.734;8.950;2023-01-24T09:10:25;99951.94;;;1.84;85.52
27712;BME280;2377;51.734;8.950;2023-01-24T09:12:53;99951.84;;;1.86;85.61
27712;BME280;2377;51.734;8.950;2023-01-24T09:15:20;99950.94;;;1.87;85.25
27712;BME280;2377;51.734;8.950;2023-01-24T09:17:47;99957.00;;;1.84;85.15
27712;BME280;2377;51.734;8.950;2023-01-24T09:20:14;99956.50;;;1.79;86.14
27712;BME280;2377;51.734;8.950;2023-01-24T09:22:42;99956.78;;;1.87;86.21
27712;BME280;2377;51.734;8.950;2023-01-24T09:25:10;99961.50;;;1.92;86.67
27712;BME280;2377;51.734;8.950;2023-01-24T09:27:39;99963.94;;;1.94;85.57
27712;BME280;2377;51.734;8.950;2023-01-24T09:30:10;99963.16;;;1.93;85.94
27712;BME280;2377;51.734;8.950;2023-01-24T09:32:37;99966.97;;;1.99;86.14
27712;BME280;2377;51.734;8.950;2023-01-24T09:35:06;99957.66;;;1.99;85.73
27712;BME280;2377;51.734;8.950;2023-01-24T09:37:33;99963.50;;;2.00;85.99
27712;BME280;2377;51.734;8.950;2023-01-24T09:40:00;99960.00;;;2.02;85.97
27712;BME280;2377;51.734;8.950;2023-01-24T09:42:36;99965.94;;;2.01;85.67
27712;BME280;2377;51.734;8.950;2023-01-24T09:45:18;99965.94;;;2.01;84.73
27712;BME280;2377;51.734;8.950;2023-01-24T09:47:52;99971.00;;;2.01;85.43
27712;BME280;2377;51.734;8.950;2023-01-24T09:50:26;99967.44;;;2.04;85.89
27712;BME280;2377;51.734;8.950;2023-01-24T09:52:57;99962.91;;;2.09;85.77
27712;BME280;2377;51.734;8.950;2023-01-24T09:55:29;99968.56;;;2.13;85.58
27712;BME280;2377;51.734;8.950;2023-01-24T09:58:03;99970.06;;;2.15;85.88
27712;BME280;2377;51.734;8.950;2023-01-24T10:00:37;99970.38;;;2.10;85.33
27712;BME280;2377;51.734;8.950;2023-01-24T10:03:17;99967.94;;;2.09;84.54
27712;BME280;2377;51.734;8.950;2023-01-24T10:05:49;99968.78;;;2.09;85.17
27712;BME280;2377;51.734;8.950;2023-01-24T10:08:29;99966.13;;;2.11;84.97
27712;BME280;2377;51.734;8.950;2023-01-24T10:11:17;99959.97;;;2.15;85.13
27712;BME280;2377;51.734;8.950;2023-01-24T10:14:05;99957.34;;;2.17;85.67
27712;BME280;2377;51.734;8.950;2023-01-24T10:17:24;99960.44;;;2.20;83.93
27712;BME280;2377;51.734;8.950;2023-01-24T10:20:41;99962.28;;;2.18;84.69
27712;BME280;2377;51.734;8.950;2023-01-24T10:23:17;99966.91;;;2.24;84.70
27712;BME280;2377;51.734;8.950;2023-01-24T10:25:55;99956.72;;;2.26;84.10
27712;BME280;2377;51.734;8.950;2023-01-24T10:28:27;99960.84;;;2.27;84.01
27712;BME280;2377;51.734;8.950;2023-01-24T10:31:07;99954.28;;;2.24;84.00
27712;BME280;2377;51.734;8.950;2023-01-24T10:33:44;99956.50;;;2.29;84.82
27712;BME280;2377;51.734;8.950;2023-01-24T10:36:23;99955.00;;;2.26;83.67
27712;BME280;2377;51.734;8.950;2023-01-24T10:38:52;99960.63;;;2.30;84.16
27712;BME280;2377;51.734;8.950;2023-01-24T10:41:22;99957.22;;;2.31;84.20
27712;BME280;2377;51.734;8.950;2023-01-24T10:43:57;99962.25;;;2.31;83.52
27712;BME280;2377;51.734;8.950;2023-01-24T10:47:12;99962.34;;;2.29;83.04
27712;BME280;2377;51.734;8.950;2023-01-24T10:49:55;99961.44;;;2.30;83.76
27712;BME280;2377;51.734;8.950;2023-01-24T10:52:25;99958.41;;;2.25;83.57
27712;BME280;2377;51.734;8.950;2023-01-24T10:54:54;99966.28;;;2.33;84.76
27712;BME280;2377;51.734;8.950;2023-01-24T10:57:33;99959.19;;;2.39;84.21
27712;BME280;2377;51.734;8.950;2023-01-24T11:00:25;99956.78;;;2.37;83.31
27712;BME280;2377;51.734;8.950;2023-01-24T11:02:57;99949.81;;;2.41;83.83
27712;BME280;2377;51.734;8.950;2023-01-24T11:05:39;99948.31;;;2.38;83.24
27712;BME280;2377;51.734;8.950;2023-01-24T11:08:17;99949.09;;;2.39;83.86
27712;BME280;2377;51.734;8.950;2023-01-24T11:10:45;99939.81;;;2.39;83.41
27712;BME280;2377;51.734;8.950;2023-01-24T11:13:30;99944.97;;;2.38;83.15
27712;BME280;2377;51.734;8.950;2023-01-24T11:16:05;99942.22;;;2.41;83.37
27712;BME280;2377;51.734;8.950;2023-01-24T11:18:34;99946.75;;;2.48;84.63
27712;BME280;2377;51.734;8.950;2023-01-24T11:21:14;99944.69;;;2.53;83.75
27712;BME280;2377;51.734;8.950;2023-01-24T11:23:43;99942.78;;;2.57;83.51
27712;BME280;2377;51.734;8.950;2023-01-24T11:26:26;99938.31;;;2.61;84.25
27712;BME280;2377;51.734;8.950;2023-01-24T11:28:59;99936.28;;;2.66;83.93
27712;BME280;2377;51.734;8.950;2023-01-24T11:31:32;99938.69;;;2.67;82.86
27712;BME280;2377;51.734;8.950;2023-01-24T11:34:35;99928.72;;;2.66;82.86
27712;BME280;2377;51.734;8.950;2023-01-24T11:37:35;99927.00;;;2.66;82.65
27712;BME280;2377;51.734;8.950;2023-01-24T11:40:19;99932.22;;;2.63;82.38
27712;BME280;2377;51.734;8.950;2023-01-24T11:43:03;99925.81;;;2.59;82.19
27712;BME280;2377;51.734;8.950;2023-01-24T11:45:55;99920.63;;;2.61;83.22
27712;BME280;2377;51.734;8.950;2023-01-24T11:48:38;99921.13;;;2.66;82.69
27712;BME280;2377;51.734;8.950;2023-01-24T11:51:13;99924.78;;;2.62;82.24
27712;BME280;2377;51.734;8.950;2023-01-24T11:54:04;99933.16;;;2.62;83.38
27712;BME280;2377;51.734;8.950;2023-01-24T11:56:46;99917.59;;;2.68;82.97
27712;BME280;2377;51.734;8.950;2023-01-24T11:59:38;99919.19;;;2.69;81.98
27712;BME280;2377;51.734;8.950;2023-01-24T12:02:35;99915.16;;;2.67;82.06
27712;BME280;2377;51.734;8.950;2023-01-24T12:05:31;99912.53;;;2.68;82.90
27712;BME280;2377;51.734;8.950;2023-01-24T12:08:32;99916.19;;;2.64;81.43
27712;BME280;2377;51.734;8.950;2023-01-24T12:11:23;99901.47;;;2.58;82.06
27712;BME280;2377;51.734;8.950;2023-01-24T12:14:13;99903.88;;;2.60;81.61
27712;BME280;2377;51.734;8.950;2023-01-24T12:16:59;99897.59;;;2.65;82.09
27712;BME280;2377;51.734;8.950;2023-01-24T12:20:00;99899.91;;;2.68;82.27
27712;BME280;2377;51.734;8.950;2023-01-24T12:22:30;99897.16;;;2.71;81.94
27712;BME280;2377;51.734;8.950;2023-01-24T12:25:05;99894.88;;;2.68;82.19
27712;BME280;2377;51.734;8.950;2023-01-24T12:27:40;99894.38;;;2.63;81.85
27712;BME280;2377;51.734;8.950;2023-01-24T12:30:23;99891.84;;;2.63;81.57
27712;BME280;2377;51.734;8.950;2023-01-24T12:33:00;99890.16;;;2.64;81.56
27712;BME280;2377;51.734;8.950;2023-01-24T12:35:34;99881.63;;;2.65;82.17
27712;BME280;2377;51.734;8.950;2023-01-24T12:38:10;99880.63;;;2.67;81.69
27712;BME280;2377;51.734;8.950;2023-01-24T12:40:50;99869.63;;;2.68;81.42
27712;BME280;2377;51.734;8.950;2023-01-24T12:43:34;99874.06;;;2.65;80.79
27712;BME280;2377;51.734;8.950;2023-01-24T12:46:13;99872.66;;;2.61;81.53
27712;BME280;2377;51.734;8.950;2023-01-24T12:48:47;99872.09;;;2.57;81.02
27712;BME280;2377;51.734;8.950;2023-01-24T12:51:24;99873.69;;;2.58;81.37
27712;BME280;2377;51.734;8.950;2023-01-24T12:54:02;99866.59;;;2.63;82.02
27712;BME280;2377;51.734;8.950;2023-01-24T12:56:42;99863.19;;;2.64;81.32
27712;BME280;2377;51.734;8.950;2023-01-24T12:59:16;99858.34;;;2.61;81.04
27712;BME280;2377;51.734;8.950;2023-01-24T13:02:19;99863.72;;;2.57;81.34
27712;BME280;2377;51.734;8.950;2023-01-24T13:05:00;99859.72;;;2.54;81.10
27712;BME280;2377;51.734;8.950;2023-01-24T13:07:48;99859.91;;;2.51;81.20
27712;BME280;2377;51.734;8.950;2023-01-24T13:10:34;99855.78;;;2.50;81.51
27712;BME280;2377;51.734;8.950;2023-01-24T13:13:13;99861.72;;;2.49;80.96
27712;BME280;2377;51.734;8.950;2023-01-24T13:16:05;99862.66;;;2.48;80.46
27712;BME280;2377;51.734;8.950;2023-01-24T13:18:51;99863.47;;;2.48;80.70
27712;BME280;2377;51.734;8.950;2023-01-24T13:21:29;99860.84;;;2.50;80.92
27712;BME280;2377;51.734;8.950;2023-01-24T13:24:40;99864.25;;;2.49;80.05
27712;BME280;2377;51.734;8.950;2023-01-24T13:27:31;99867.00;;;2.46;80.37
27712;BME280;2377;51.734;8.950;2023-01-24T13:30:31;99865.19;;;2.48;81.16
27712;BME280;2377;51.734;8.950;2023-01-24T13:33:04;99865.41;;;2.45;80.23
27712;BME280;2377;51.734;8.950;2023-01-24T13:35:32;99877.41;;;2.41;80.06
27712;BME280;2377;51.734;8.950;2023-01-24T13:38:05;99877.66;;;2.38;80.70
27712;BME280;2377;51.734;8.950;2023-01-24T13:40:58;99866.63;;;2.39;80.90
27712;BME280;2377;51.734;8.950;2023-01-24T13:43:58;99871.81;;;2.38;79.87
27712;BME280;2377;51.734;8.950;2023-01-24T13:46:59;99871.81;;;2.38;80.63
27712;BME280;2377;51.734;8.950;2023-01-24T13:49:38;99866.84;;;2.36;80.65
27712;BME280;2377;51.734;8.950;2023-01-24T13:52:44;99866.38;;;2.31;80.80
27712;BME280;2377;51.734;8.950;2023-01-24T13:56:00;99865.06;;;2.25;80.58